sensor_id;sensor_type;location;lat;lon;timestamp;pressure;altitude;pressure_sealevel;temperature;humidity
38620;BME280;24376;51.986;4.662;2022-07-29T00:01:57;102267.44;;;16.28;100.00
38620;BME280;24376;51.986;4.662;2022-07-29T00:04:22;102272.63;;;16.23;100.00
38620;BME280;24376;51.986;4.662;2022-07-29T00:06:47;102281.34;;;16.21;100.00
38620;BME280;24376;51.986;4.662;2022-07-29T00:09:13;102277.81;;;16.20;100.00
38620;BME280;24376;51.986;4.662;2022-07-29T00:11:38;102278.69;;;16.19;100.00
38620;BME280;24376;51.986;4.662;2022-07-29T00:14:03;102273.31;;;16.16;100.00
38620;BME280;24376;51.986;4.662;2022-07-29T00:16:28;102275.78;;;16.10;100.00
38620;BME280;24376;51.986;4.662;2022-07-29T00:18:54;102281.91;;;16.08;100.00
38620;BME280;24376;51.986;4.662;2022-07-29T00:21:19;102282.03;;;16.12;100.00
38620;BME280;24376;51.986;4.662;2022-07-29T00:23:44;102298.69;;;16.10;100.00
38620;BME280;24376;51.986;4.662;2022-07-29T00:26:09;102292.38;;;16.05;100.00
38620;BME280;24376;51.986;4.662;2022-07-29T00:28:34;102299.44;;;16.06;100.00
38620;BME280;24376;51.986;4.662;2022-07-29T00:31:00;102289.72;;;16.05;100.00
38620;BME280;24376;51.986;4.662;2022-07-29T00:33:25;102277.34;;;16.02;100.00
38620;BME280;24376;51.986;4.662;2022-07-29T00:35:50;102293.19;;;16.02;100.00
38620;BME280;24376;51.986;4.662;2022-07-29T00:38:17;102283.53;;;16.03;100.00
38620;BME280;24376;51.986;4.662;2022-07-29T00:40:42;102284.25;;;15.97;100.00
38620;BME280;24376;51.986;4.662;2022-07-29T00:43:08;102288.63;;;15.96;100.00
38620;BME280;24376;51.986;4.662;2022-07-29T00:45:33;102291.16;;;15.92;100.00
38620;BME280;24376;51.986;4.662;2022-07-29T00:47:58;102288.50;;;15.92;100.00
38620;BME280;24376;51.986;4.662;2022-07-29T00:50:24;102289.38;;;15.91;100.00
38620;BME280;24376;51.986;4.662;2022-07-29T00:52:49;102296.38;;;15.89;100.00
38620;BME280;24376;51.986;4.662;2022-07-29T00:55:15;102292.69;;;15.84;100.00
38620;BME280;24376;51.986;4.662;2022-07-29T00:57:41;102304.06;;;15.81;100.00
38620;BME280;24376;51.986;4.662;2022-07-29T01:00:08;102312.00;;;15.83;100.00
38620;BME280;24376;51.986;4.662;2022-07-29T01:02:34;102310.16;;;15.79;100.00
38620;BME280;24376;51.986;4.662;2022-07-29T01:05:00;102318.06;;;15.77;100.00
38620;BME280;24376;51.986;4.662;2022-07-29T01:07:25;102324.94;;;15.72;100.00
38620;BME280;24376;51.986;4.662;2022-07-29T01:09:51;102331.97;;;15.72;100.00
38620;BME280;24376;51.986;4.662;2022-07-29T01:12:17;102342.53;;;15.72;100.00
38620;BME280;24376;51.986;4.662;2022-07-29T01:14:44;102354.78;;;15.69;100.00
38620;BME280;24376;51.986;4.662;2022-07-29T01:17:20;102364.41;;;15.67;100.00
38620;BME280;24376;51.986;4.662;2022-07-29T01:30:13;102386.94;;;15.56;100.00
38620;BME280;24376;51.986;4.662;2022-07-29T01:32:38;102388.75;;;15.59;100.00
38620;BME280;24376;51.986;4.662;2022-07-29T01:35:21;102392.25;;;15.58;100.00
38620;BME280;24376;51.986;4.662;2022-07-29T01:38:00;102384.31;;;15.58;100.00
38620;BME280;24376;51.986;4.662;2022-07-29T01:43:03;102380.66;;;15.53;100.00
38620;BME280;24376;51.986;4.662;2022-07-29T01:48:03;102393.81;;;15.51;100.00
38620;BME280;24376;51.986;4.662;2022-07-29T01:50:33;102392.03;;;15.50;100.00
38620;BME280;24376;51.986;4.662;2022-07-29T01:53:00;102390.25;;;15.49;100.00
38620;BME280;24376;51.986;4.662;2022-07-29T01:55:27;102393.63;;;15.45;100.00
38620;BME280;24376;51.986;4.662;2022-07-29T01:57:53;102388.34;;;15.45;100.00
38620;BME280;24376;51.986;4.662;2022-07-29T02:00:19;102379.50;;;15.43;100.00
38620;BME280;24376;51.986;4.662;2022-07-29T02:02:45;102383.06;;;15.45;100.00
38620;BME280;24376;51.986;4.662;2022-07-29T02:05:14;102377.78;;;15.45;100.00
38620;BME280;24376;51.986;4.662;2022-07-29T02:07:40;102382.16;;;15.44;100.00
38620;BME280;24376;51.986;4.662;2022-07-29T02:10:07;102377.78;;;15.45;100.00
38620;BME280;24376;51.986;4.662;2022-07-29T02:12:32;102379.56;;;15.46;100.00
38620;BME280;24376;51.986;4.662;2022-07-29T02:14:59;102380.31;;;15.42;100.00
38620;BME280;24376;51.986;4.662;2022-07-29T02:17:49;102360.84;;;15.37;100.00
38620;BME280;24376;51.986;4.662;2022-07-29T02:20:11;102347.66;;;15.38;100.00
38620;BME280;24376;51.986;4.662;2022-07-29T02:22:37;102350.28;;;15.37;100.00
38620;BME280;24376;51.986;4.662;2022-07-29T02:25:03;102330.88;;;15.36;100.00
38620;BME280;24376;51.986;4.662;2022-07-29T02:27:29;102327.44;;;15.39;100.00
38620;BME280;24376;51.986;4.662;2022-07-29T02:29:55;102331.78;;;15.37;100.00
38620;BME280;24376;51.986;4.662;2022-07-29T02:32:22;102345.03;;;15.38;100.00
38620;BME280;24376;51.986;4.662;2022-07-29T02:34:49;102336.09;;;15.35;100.00
38620;BME280;24376;51.986;4.662;2022-07-29T02:37:15;102336.97;;;15.34;100.00
38620;BME280;24376;51.986;4.662;2022-07-29T02:39:41;102339.72;;;15.37;100.00
38620;BME280;24376;51.986;4.662;2022-07-29T02:42:09;102343.16;;;15.36;100.00
38620;BME280;24376;51.986;4.662;2022-07-29T02:44:36;102340.47;;;15.33;100.00
38620;BME280;24376;51.986;4.662;2022-07-29T02:47:04;102338.66;;;15.32;100.00
38620;BME280;24376;51.986;4.662;2022-07-29T02:49:40;102333.31;;;15.30;100.00
38620;BME280;24376;51.986;4.662;2022-07-29T02:52:18;102336.88;;;15.31;100.00
38620;BME280;24376;51.986;4.662;2022-07-29T02:54:55;102335.84;;;15.26;100.00
38620;BME280;24376;51.986;4.662;2022-07-29T02:57:21;102330.59;;;15.27;100.00
38620;BME280;24376;51.986;4.662;2022-07-29T02:59:48;102333.06;;;15.21;100.00
38620;BME280;24376;51.986;4.662;2022-07-29T03:02:14;102311.84;;;15.18;100.00
38620;BME280;24376;51.986;4.662;2022-07-29T03:04:41;102288.75;;;15.11;100.00
38620;BME280;24376;51.986;4.662;2022-07-29T03:07:07;102263.25;;;15.10;100.00
38620;BME280;24376;51.986;4.662;2022-07-29T03:09:33;102211.19;;;15.04;100.00
38620;BME280;24376;51.986;4.662;2022-07-29T03:11:59;102174.94;;;14.97;100.00
38620;BME280;24376;51.986;4.662;2022-07-29T03:14:25;102122.22;;;14.99;100.00
38620;BME280;24376;51.986;4.662;2022-07-29T03:16:51;102035.03;;;14.94;100.00
38620;BME280;24376;51.986;4.662;2022-07-29T03:19:17;101963.78;;;14.93;100.00
38620;BME280;24376;51.986;4.662;2022-07-29T03:21:42;101917.22;;;14.93;100.00
38620;BME280;24376;51.986;4.662;2022-07-29T03:24:07;101887.44;;;14.97;100.00
38620;BME280;24376;51.986;4.662;2022-07-29T03:26:32;101833.72;;;14.94;100.00
38620;BME280;24376;51.986;4.662;2022-07-29T03:28:58;101793.25;;;14.92;100.00
38620;BME280;24376;51.986;4.662;2022-07-29T03:31:23;101728.97;;;14.88;100.00
38620;BME280;24376;51.986;4.662;2022-07-29T03:33:48;101691.16;;;14.86;100.00
38620;BME280;24376;51.986;4.662;2022-07-29T03:36:13;101626.09;;;14.85;100.00
38620;BME280;24376;51.986;4.662;2022-07-29T03:38:38;101613.81;;;14.87;100.00
38620;BME280;24376;51.986;4.662;2022-07-29T03:41:07;101612.03;;;14.86;100.00
38620;BME280;24376;51.986;4.662;2022-07-29T03:43:34;101608.41;;;14.81;100.00
38620;BME280;24376;51.986;4.662;2022-07-29T03:46:00;101591.81;;;14.85;100.00
38620;BME280;24376;51.986;4.662;2022-07-29T03:48:26;101567.94;;;14.79;100.00
38620;BME280;24376;51.986;4.662;2022-07-29T03:50:54;101530.97;;;14.76;100.00
38620;BME280;24376;51.986;4.662;2022-07-29T03:53:20;101496.78;;;14.79;100.00
38620;BME280;24376;51.986;4.662;2022-07-29T03:55:47;101460.66;;;14.76;100.00
38620;BME280;24376;51.986;4.662;2022-07-29T03:58:13;101453.59;;;14.74;100.00
38620;BME280;24376;51.986;4.662;2022-07-29T04:00:39;101433.38;;;14.73;100.00
38620;BME280;24376;51.986;4.662;2022-07-29T04:03:05;101413.97;;;14.69;100.00
38620;BME280;24376;51.986;4.662;2022-07-29T04:05:30;101396.41;;;14.70;100.00
38620;BME280;24376;51.986;4.662;2022-07-29T04:07:55;101378.84;;;14.72;100.00
38620;BME280;24376;51.986;4.662;2022-07-29T04:10:20;101363.94;;;14.72;100.00
38620;BME280;24376;51.986;4.662;2022-07-29T04:12:46;101347.22;;;14.72;100.00
38620;BME280;24376;51.986;4.662;2022-07-29T04:15:11;101336.69;;;14.72;100.00
38620;BME280;24376;51.986;4.662;2022-07-29T04:17:36;101330.50;;;14.70;100.00
38620;BME280;24376;51.986;4.662;2022-07-29T04:20:02;101319.06;;;14.68;100.00
38620;BME280;24376;51.986;4.662;2022-07-29T04:22:28;101291.75;;;14.64;100.00
38620;BME280;24376;51.986;4.662;2022-07-29T04:24:53;101251.34;;;14.63;100.00
38620;BME280;24376;51.986;4.662;2022-07-29T04:27:18;101244.38;;;14.67;100.00
38620;BME280;24376;51.986;4.662;2022-07-29T04:29:43;101238.16;;;14.65;100.00
38620;BME280;24376;51.986;4.662;2022-07-29T04:32:09;101239.06;;;14.66;100.00
38620;BME280;24376;51.986;4.662;2022-07-29T04:34:34;101247.81;;;14.63;100.00
38620;BME280;24376;51.986;4.662;2022-07-29T04:36:59;101235.56;;;14.67;100.00
38620;BME280;24376;51.986;4.662;2022-07-29T04:42:10;101256.59;;;14.62;100.00
38620;BME280;24376;51.986;4.662;2022-07-29T04:44:35;101255.75;;;14.64;100.00
38620;BME280;24376;51.986;4.662;2022-07-29T04:47:00;101270.66;;;14.64;100.00
38620;BME280;24376;51.986;4.662;2022-07-29T04:49:25;101266.38;;;14.69;100.00
38620;BME280;24376;51.986;4.662;2022-07-29T04:51:50;101282.13;;;14.66;100.00
38620;BME280;24376;51.986;4.662;2022-07-29T04:54:16;101275.09;;;14.67;100.00
38620;BME280;24376;51.986;4.662;2022-07-29T04:56:41;101274.28;;;14.69;100.00
38620;BME280;24376;51.986;4.662;2022-07-29T04:59:06;101292.75;;;14.71;100.00
38620;BME280;24376;51.986;4.662;2022-07-29T05:01:31;101287.56;;;14.75;100.00
38620;BME280;24376;51.986;4.662;2022-07-29T05:03:57;101298.09;;;14.77;100.00
38620;BME280;24376;51.986;4.662;2022-07-29T05:06:22;101304.34;;;14.82;100.00
38620;BME280;24376;51.986;4.662;2022-07-29T05:08:47;101326.34;;;14.84;100.00
38620;BME280;24376;51.986;4.662;2022-07-29T05:11:12;101343.06;;;14.84;100.00
38620;BME280;24376;51.986;4.662;2022-07-29T05:13:38;101356.22;;;14.83;100.00
38620;BME280;24376;51.986;4.662;2022-07-29T05:16:03;101357.97;;;14.82;100.00
38620;BME280;24376;51.986;4.662;2022-07-29T05:18:28;101370.25;;;14.82;100.00
38620;BME280;24376;51.986;4.662;2022-07-29T05:20:53;101370.22;;;14.79;100.00
38620;BME280;24376;51.986;4.662;2022-07-29T05:23:19;101383.44;;;14.82;100.00
38620;BME280;24376;51.986;4.662;2022-07-29T05:25:44;101390.53;;;14.84;100.00
38620;BME280;24376;51.986;4.662;2022-07-29T05:28:09;101394.94;;;14.85;100.00
38620;BME280;24376;51.986;4.662;2022-07-29T05:30:34;101402.09;;;14.94;100.00
38620;BME280;24376;51.986;4.662;2022-07-29T05:32:59;101411.97;;;15.04;100.00
38620;BME280;24376;51.986;4.662;2022-07-29T05:35:24;101425.25;;;15.10;100.00
38620;BME280;24376;51.986;4.662;2022-07-29T05:37:50;101423.72;;;15.25;100.00
38620;BME280;24376;51.986;4.662;2022-07-29T05:40:15;101451.22;;;15.39;100.00
38620;BME280;24376;51.986;4.662;2022-07-29T05:42:40;101491.91;;;15.53;100.00
38620;BME280;24376;51.986;4.662;2022-07-29T05:45:05;101560.03;;;15.73;100.00
38620;BME280;24376;51.986;4.662;2022-07-29T05:47:31;101639.41;;;15.82;100.00
38620;BME280;24376;51.986;4.662;2022-07-29T05:49:56;101749.72;;;15.96;100.00
38620;BME280;24376;51.986;4.662;2022-07-29T05:52:22;101897.06;;;16.11;100.00
38620;BME280;24376;51.986;4.662;2022-07-29T05:54:47;102056.66;;;16.18;100.00
38620;BME280;24376;51.986;4.662;2022-07-29T05:57:21;102160.78;;;16.26;100.00
38620;BME280;24376;51.986;4.662;2022-07-29T05:59:47;102259.81;;;16.40;100.00
38620;BME280;24376;51.986;4.662;2022-07-29T06:02:12;102332.19;;;16.44;100.00
38620;BME280;24376;51.986;4.662;2022-07-29T06:04:38;102386.06;;;16.49;100.00
38620;BME280;24376;51.986;4.662;2022-07-29T06:07:03;102416.25;;;16.57;100.00
38620;BME280;24376;51.986;4.662;2022-07-29T06:09:29;102428.53;;;16.55;100.00
38620;BME280;24376;51.986;4.662;2022-07-29T06:11:54;102442.09;;;16.67;100.00
38620;BME280;24376;51.986;4.662;2022-07-29T06:14:19;102446.84;;;16.79;100.00
38620;BME280;24376;51.986;4.662;2022-07-29T06:16:44;102451.22;;;16.77;100.00
38620;BME280;24376;51.986;4.662;2022-07-29T06:19:10;102422.13;;;16.77;100.00
38620;BME280;24376;51.986;4.662;2022-07-29T06:21:35;102425.81;;;16.84;100.00
38620;BME280;24376;51.986;4.662;2022-07-29T06:24:00;102405.50;;;16.83;100.00
38620;BME280;24376;51.986;4.662;2022-07-29T06:26:25;102392.78;;;17.04;100.00
38620;BME280;24376;51.986;4.662;2022-07-29T06:28:50;102380.81;;;17.20;100.00
38620;BME280;24376;51.986;4.662;2022-07-29T06:31:16;102371.47;;;17.34;100.00
38620;BME280;24376;51.986;4.662;2022-07-29T06:33:41;102340.56;;;17.35;100.00
38620;BME280;24376;51.986;4.662;2022-07-29T06:36:06;102331.28;;;17.53;100.00
38620;BME280;24376;51.986;4.662;2022-07-29T06:38:32;102311.19;;;17.65;100.00
38620;BME280;24376;51.986;4.662;2022-07-29T06:40:58;102301.47;;;17.64;100.00
38620;BME280;24376;51.986;4.662;2022-07-29T06:43:38;102289.13;;;17.64;100.00
38620;BME280;24376;51.986;4.662;2022-07-29T06:46:05;102283.00;;;17.68;100.00
38620;BME280;24376;51.986;4.662;2022-07-29T06:48:30;102277.53;;;17.59;100.00
38620;BME280;24376;51.986;4.662;2022-07-29T06:50:56;102272.28;;;17.62;100.00
38620;BME280;24376;51.986;4.662;2022-07-29T06:53:21;102272.22;;;17.59;100.00
38620;BME280;24376;51.986;4.662;2022-07-29T06:55:46;102267.56;;;17.46;100.00
38620;BME280;24376;51.986;4.662;2022-07-29T06:58:11;102270.13;;;17.43;100.00
38620;BME280;24376;51.986;4.662;2022-07-29T07:00:39;102269.22;;;17.42;100.00
38620;BME280;24376;51.986;4.662;2022-07-29T07:03:04;102282.75;;;17.56;100.00
38620;BME280;24376;51.986;4.662;2022-07-29T07:05:29;102277.53;;;17.59;100.00
38620;BME280;24376;51.986;4.662;2022-07-29T07:07:54;102276.38;;;17.89;100.00
38620;BME280;24376;51.986;4.662;2022-07-29T07:10:19;102275.91;;;18.11;100.00
38620;BME280;24376;51.986;4.662;2022-07-29T07:12:44;102266.22;;;18.13;100.00
38620;BME280;24376;51.986;4.662;2022-07-29T07:15:10;102268.56;;;18.48;100.00
38620;BME280;24376;51.986;4.662;2022-07-29T07:17:35;102254.69;;;18.11;100.00
38620;BME280;24376;51.986;4.662;2022-07-29T07:20:00;102266.41;;;18.25;100.00
38620;BME280;24376;51.986;4.662;2022-07-29T07:22:25;102258.66;;;18.38;100.00
38620;BME280;24376;51.986;4.662;2022-07-29T07:24:50;102265.94;;;18.49;100.00
38620;BME280;24376;51.986;4.662;2022-07-29T07:27:16;102252.25;;;18.78;100.00
38620;BME280;24376;51.986;4.662;2022-07-29T07:29:41;102256.09;;;18.97;100.00
38620;BME280;24376;51.986;4.662;2022-07-29T07:32:06;102242.94;;;19.06;100.00
38620;BME280;24376;51.986;4.662;2022-07-29T07:34:31;102235.09;;;19.13;100.00
38620;BME280;24376;51.986;4.662;2022-07-29T07:36:57;102228.03;;;19.17;100.00
38620;BME280;24376;51.986;4.662;2022-07-29T07:39:22;102227.56;;;19.52;100.00
38620;BME280;24376;51.986;4.662;2022-07-29T07:41:47;102217.00;;;19.58;100.00
38620;BME280;24376;51.986;4.662;2022-07-29T07:44:12;102206.59;;;19.75;100.00
38620;BME280;24376;51.986;4.662;2022-07-29T07:46:37;102198.63;;;19.73;100.00
38620;BME280;24376;51.986;4.662;2022-07-29T07:49:03;102187.22;;;19.86;100.00
38620;BME280;24376;51.986;4.662;2022-07-29T07:51:28;102180.22;;;19.95;100.00
38620;BME280;24376;51.986;4.662;2022-07-29T07:53:53;102169.66;;;20.04;100.00
38620;BME280;24376;51.986;4.662;2022-07-29T07:56:18;102168.88;;;20.18;100.00
38620;BME280;24376;51.986;4.662;2022-07-29T07:58:43;102164.53;;;20.33;100.00
38620;BME280;24376;51.986;4.662;2022-07-29T08:01:09;102159.34;;;20.46;100.00
38620;BME280;24376;51.986;4.662;2022-07-29T08:03:34;102145.94;;;20.33;100.00
38620;BME280;24376;51.986;4.662;2022-07-29T08:05:59;102144.72;;;19.89;100.00
38620;BME280;24376;51.986;4.662;2022-07-29T08:08:24;102140.84;;;19.57;100.00
38620;BME280;24376;51.986;4.662;2022-07-29T08:10:50;102164.13;;;19.81;100.00
38620;BME280;24376;51.986;4.662;2022-07-29T08:13:18;102154.38;;;19.80;100.00
38620;BME280;24376;51.986;4.662;2022-07-29T08:15:44;102153.53;;;19.85;100.00
38620;BME280;24376;51.986;4.662;2022-07-29T08:18:10;102143.91;;;19.98;100.00
38620;BME280;24376;51.986;4.662;2022-07-29T08:20:36;102147.56;;;20.17;100.00
38620;BME280;24376;51.986;4.662;2022-07-29T08:23:02;102145.63;;;19.90;100.00
38620;BME280;24376;51.986;4.662;2022-07-29T08:25:29;102147.34;;;19.88;100.00
38620;BME280;24376;51.986;4.662;2022-07-29T08:27:54;102149.34;;;20.15;100.00
38620;BME280;24376;51.986;4.662;2022-07-29T08:30:19;102157.44;;;20.30;100.00
38620;BME280;24376;51.986;4.662;2022-07-29T08:32:44;102143.25;;;20.31;100.00
38620;BME280;24376;51.986;4.662;2022-07-29T08:35:09;102140.69;;;20.43;100.00
38620;BME280;24376;51.986;4.662;2022-07-29T08:37:35;102134.63;;;20.66;100.00
38620;BME280;24376;51.986;4.662;2022-07-29T08:40:00;102135.59;;;20.83;100.00
38620;BME280;24376;51.986;4.662;2022-07-29T08:42:25;102130.31;;;20.98;100.00
38620;BME280;24376;51.986;4.662;2022-07-29T08:44:50;102126.56;;;20.51;100.00
38620;BME280;24376;51.986;4.662;2022-07-29T08:47:15;102123.91;;;20.49;100.00
38620;BME280;24376;51.986;4.662;2022-07-29T08:49:41;102122.09;;;20.46;100.00
38620;BME280;24376;51.986;4.662;2022-07-29T08:52:06;102131.13;;;20.79;100.00
38620;BME280;24376;51.986;4.662;2022-07-29T08:54:31;102119.66;;;20.91;100.00
38620;BME280;24376;51.986;4.662;2022-07-29T08:56:56;102108.22;;;21.18;100.00
38620;BME280;24376;51.986;4.662;2022-07-29T08:59:22;102113.53;;;21.24;100.00
38620;BME280;24376;51.986;4.662;2022-07-29T09:01:50;102105.63;;;21.35;100.00
38620;BME280;24376;51.986;4.662;2022-07-29T09:04:16;102101.09;;;21.17;100.00
38620;BME280;24376;51.986;4.662;2022-07-29T09:06:43;102101.09;;;21.12;100.00
38620;BME280;24376;51.986;4.662;2022-07-29T09:09:08;102099.28;;;21.02;100.00
38620;BME280;24376;51.986;4.662;2022-07-29T09:11:34;102094.84;;;21.01;100.00
38620;BME280;24376;51.986;4.662;2022-07-29T09:13:59;102095.78;;;21.20;100.00
38620;BME280;24376;51.986;4.662;2022-07-29T09:16:25;102099.31;;;21.17;100.00
38620;BME280;24376;51.986;4.662;2022-07-29T09:18:50;102093.88;;;20.79;100.00
38620;BME280;24376;51.986;4.662;2022-07-29T09:21:16;102097.34;;;20.63;100.00
38620;BME280;24376;51.986;4.662;2022-07-29T09:26:32;102095.72;;;20.95;100.00
38620;BME280;24376;51.986;4.662;2022-07-29T09:28:58;102104.41;;;20.58;100.00
38620;BME280;24376;51.986;4.662;2022-07-29T09:31:33;102109.81;;;20.75;100.00
38620;BME280;24376;51.986;4.662;2022-07-29T09:34:00;102115.19;;;20.82;100.00
38620;BME280;24376;51.986;4.662;2022-07-29T09:36:25;102100.03;;;20.69;100.00
38620;BME280;24376;51.986;4.662;2022-07-29T09:38:57;102109.06;;;21.12;100.00
38620;BME280;24376;51.986;4.662;2022-07-29T09:41:22;102110.97;;;21.47;100.00
38620;BME280;24376;51.986;4.662;2022-07-29T09:43:57;102105.53;;;21.21;100.00
38620;BME280;24376;51.986;4.662;2022-07-29T09:46:23;102094.06;;;21.62;100.00
38620;BME280;24376;51.986;4.662;2022-07-29T09:49:07;102094.97;;;21.94;100.00
38620;BME280;24376;51.986;4.662;2022-07-29T09:51:33;102084.28;;;22.14;100.00
38620;BME280;24376;51.986;4.662;2022-07-29T09:53:59;102088.75;;;22.21;100.00
38620;BME280;24376;51.986;4.662;2022-07-29T09:56:40;102080.72;;;22.14;100.00
38620;BME280;24376;51.986;4.662;2022-07-29T09:59:06;102099.41;;;21.60;100.00
38620;BME280;24376;51.986;4.662;2022-07-29T10:01:31;102098.53;;;21.81;100.00
38620;BME280;24376;51.986;4.662;2022-07-29T10:03:56;102090.50;;;22.05;100.00
38620;BME280;24376;51.986;4.662;2022-07-29T10:06:22;102079.81;;;22.09;100.00
38620;BME280;24376;51.986;4.662;2022-07-29T10:08:47;102079.84;;;22.01;100.00
38620;BME280;24376;51.986;4.662;2022-07-29T10:11:13;102079.81;;;22.30;100.00
38620;BME280;24376;51.986;4.662;2022-07-29T10:13:39;102086.09;;;22.11;100.00
38620;BME280;24376;51.986;4.662;2022-07-29T10:16:05;102087.84;;;21.78;100.00
38620;BME280;24376;51.986;4.662;2022-07-29T10:18:30;102094.97;;;22.03;100.00
38620;BME280;24376;51.986;4.662;2022-07-29T10:20:57;102093.22;;;22.10;100.00
38620;BME280;24376;51.986;4.662;2022-07-29T10:23:22;102082.47;;;22.36;100.00
38620;BME280;24376;51.986;4.662;2022-07-29T10:25:48;102085.09;;;22.47;100.00
38620;BME280;24376;51.986;4.662;2022-07-29T10:28:14;102078.78;;;22.66;100.00
38620;BME280;24376;51.986;4.662;2022-07-29T10:30:39;102082.38;;;22.68;100.00
38620;BME280;24376;51.986;4.662;2022-07-29T10:41:06;102077.91;;;22.66;100.00
38620;BME280;24376;51.986;4.662;2022-07-29T10:43:53;102073.25;;;23.12;100.00
38620;BME280;24376;51.986;4.662;2022-07-29T10:46:19;102065.38;;;22.89;100.00
38620;BME280;24376;51.986;4.662;2022-07-29T10:51:50;102054.28;;;23.49;100.00
38620;BME280;24376;51.986;4.662;2022-07-29T10:54:13;102058.72;;;23.54;100.00
38620;BME280;24376;51.986;4.662;2022-07-29T10:56:39;102051.63;;;23.47;100.00
38620;BME280;24376;51.986;4.662;2022-07-29T11:01:49;102036.22;;;23.80;100.00
38620;BME280;24376;51.986;4.662;2022-07-29T11:04:15;102039.63;;;23.94;100.00
38620;BME280;24376;51.986;4.662;2022-07-29T11:09:24;102035.88;;;24.10;100.00
38620;BME280;24376;51.986;4.662;2022-07-29T11:11:50;102030.66;;;24.01;100.00
38620;BME280;24376;51.986;4.662;2022-07-29T11:14:15;102034.19;;;24.03;100.00
38620;BME280;24376;51.986;4.662;2022-07-29T11:16:58;102019.38;;;23.72;100.00
38620;BME280;24376;51.986;4.662;2022-07-29T11:19:24;102034.66;;;23.54;100.00
38620;BME280;24376;51.986;4.662;2022-07-29T11:21:49;102035.88;;;24.10;100.00
38620;BME280;24376;51.986;4.662;2022-07-29T11:24:22;102015.47;;;24.00;100.00
38620;BME280;24376;51.986;4.662;2022-07-29T11:27:07;102015.47;;;24.02;100.00
38620;BME280;24376;51.986;4.662;2022-07-29T11:29:32;102033.66;;;24.51;100.00
38620;BME280;24376;51.986;4.662;2022-07-29T11:32:13;102039.59;;;24.74;100.00
38620;BME280;24376;51.986;4.662;2022-07-29T11:34:39;102035.91;;;24.81;100.00
38620;BME280;24376;51.986;4.662;2022-07-29T11:47:35;102018.38;;;25.24;100.00
38620;BME280;24376;51.986;4.662;2022-07-29T11:50:02;102014.09;;;25.64;100.00
38620;BME280;24376;51.986;4.662;2022-07-29T11:52:34;102009.84;;;26.02;100.00
38620;BME280;24376;51.986;4.662;2022-07-29T11:55:02;102014.53;;;25.92;100.00
38620;BME280;24376;51.986;4.662;2022-07-29T11:57:28;102020.19;;;25.72;100.00
38620;BME280;24376;51.986;4.662;2022-07-29T11:59:53;102017.50;;;25.76;100.00
38620;BME280;24376;51.986;4.662;2022-07-29T12:02:20;102012.56;;;26.00;100.00
38620;BME280;24376;51.986;4.662;2022-07-29T12:04:51;102019.16;;;25.83;100.00
38620;BME280;24376;51.986;4.662;2022-07-29T12:07:17;102025.91;;;26.05;100.00
38620;BME280;24376;51.986;4.662;2022-07-29T12:09:52;102012.06;;;25.79;100.00
38620;BME280;24376;51.986;4.662;2022-07-29T12:12:17;102014.03;;;25.67;100.00
38620;BME280;24376;51.986;4.662;2022-07-29T12:14:43;102016.19;;;25.96;100.00
38620;BME280;24376;51.986;4.662;2022-07-29T12:17:33;102011.25;;;26.21;100.00
38620;BME280;24376;51.986;4.662;2022-07-29T12:19:59;102015.19;;;27.27;100.00
38620;BME280;24376;51.986;4.662;2022-07-29T12:24:53;102014.72;;;27.10;100.00
38620;BME280;24376;51.986;4.662;2022-07-29T12:27:19;102005.41;;;27.23;100.00
38620;BME280;24376;51.986;4.662;2022-07-29T12:29:45;102009.50;;;25.71;100.00
38620;BME280;24376;51.986;4.662;2022-07-29T12:32:10;102025.53;;;25.21;100.00
38620;BME280;24376;51.986;4.662;2022-07-29T12:34:35;102016.41;;;26.31;100.00
38620;BME280;24376;51.986;4.662;2022-07-29T12:37:00;102010.34;;;25.73;100.00
38620;BME280;24376;51.986;4.662;2022-07-29T12:39:26;102019.81;;;26.40;100.00
38620;BME280;24376;51.986;4.662;2022-07-29T12:41:53;102008.22;;;27.19;100.00
38620;BME280;24376;51.986;4.662;2022-07-29T12:44:18;102014.19;;;27.31;100.00
38620;BME280;24376;51.986;4.662;2022-07-29T12:46:43;102008.50;;;27.07;100.00
38620;BME280;24376;51.986;4.662;2022-07-29T12:49:11;102010.53;;;26.95;100.00
38620;BME280;24376;51.986;4.662;2022-07-29T12:51:45;102014.03;;;27.38;100.00
38620;BME280;24376;51.986;4.662;2022-07-29T12:54:12;102012.28;;;26.98;100.00
38620;BME280;24376;51.986;4.662;2022-07-29T12:56:38;102018.25;;;26.29;100.00
38620;BME280;24376;51.986;4.662;2022-07-29T12:59:16;102018.31;;;26.25;100.00
38620;BME280;24376;51.986;4.662;2022-07-29T13:01:42;102009.41;;;25.25;100.00
38620;BME280;24376;51.986;4.662;2022-07-29T13:04:08;102000.44;;;26.24;100.00
38620;BME280;24376;51.986;4.662;2022-07-29T13:06:37;102002.91;;;26.35;100.00
38620;BME280;24376;51.986;4.662;2022-07-29T13:09:16;102006.19;;;26.06;100.00
38620;BME280;24376;51.986;4.662;2022-07-29T13:11:43;102012.56;;;26.86;100.00
38620;BME280;24376;51.986;4.662;2022-07-29T13:14:10;101994.75;;;27.90;100.00
38620;BME280;24376;51.986;4.662;2022-07-29T13:16:36;101993.06;;;28.17;100.00
38620;BME280;24376;51.986;4.662;2022-07-29T13:19:11;101986.44;;;27.31;100.00
38620;BME280;24376;51.986;4.662;2022-07-29T13:21:37;102001.75;;;27.96;100.00
38620;BME280;24376;51.986;4.662;2022-07-29T13:24:03;102000.97;;;27.92;100.00
38620;BME280;24376;51.986;4.662;2022-07-29T13:26:29;102017.50;;;25.76;100.00
38620;BME280;24376;51.986;4.662;2022-07-29T13:28:54;102010.47;;;26.98;100.00